createdAt,value
2022-10-10T00:02:58.497Z,2.30
2022-10-10T00:07:00.571Z,2.10
2022-10-10T00:11:02.682Z,2.35
2022-10-10T00:15:05.594Z,2.17
2022-10-10T00:19:07.709Z,2.20
2022-10-10T00:23:09.757Z,2.67
2022-10-10T00:27:11.769Z,2.60
2022-10-10T00:31:14.180Z,2.05
2022-10-10T00:35:16.231Z,2.20
2022-10-10T00:39:18.250Z,1.83
2022-10-10T00:43:21.788Z,1.80
2022-10-10T00:47:23.866Z,1.67
2022-10-10T00:51:26.069Z,1.83
2022-10-10T00:55:28.227Z,1.85
2022-10-10T00:59:36.494Z,1.63
2022-10-10T01:03:38.530Z,1.80
2022-10-10T01:07:41.551Z,1.90
2022-10-10T01:12:00.595Z,1.70
2022-10-10T01:16:25.829Z,2.92
2022-10-10T01:20:45.428Z,3.30
2022-10-10T01:25:02.650Z,3.15
2022-10-10T01:29:17.604Z,3.00
2022-10-10T01:33:32.024Z,2.70
2022-10-10T01:37:45.161Z,2.70
2022-10-10T01:42:03.206Z,2.40
2022-10-10T01:46:13.561Z,2.28
2022-10-10T01:50:19.669Z,2.33
2022-10-10T01:54:47.584Z,2.33
2022-10-10T02:03:21.976Z,2.05
2022-10-10T02:07:31.303Z,2.00
2022-10-10T02:11:38.143Z,2.05
2022-10-10T02:15:50.072Z,2.10
2022-10-10T02:19:56.697Z,2.10
2022-10-10T02:24:03.749Z,2.45
2022-10-10T02:28:25.699Z,2.08
2022-10-10T02:32:42.886Z,2.42
2022-10-10T02:36:49.448Z,2.20
2022-10-10T02:40:51.900Z,2.27
2022-10-10T02:44:55.057Z,2.25
2022-10-10T02:48:58.811Z,2.15
2022-10-10T02:53:00.804Z,2.28
2022-10-10T02:57:02.778Z,2.30
2022-10-10T03:01:04.903Z,2.20
2022-10-10T03:05:07.503Z,2.17
2022-10-10T03:09:09.497Z,2.30
2022-10-10T03:13:11.467Z,2.17
2022-10-10T03:17:13.442Z,2.47
2022-10-10T03:21:15.838Z,2.10
2022-10-10T03:25:17.877Z,2.28
2022-10-10T03:29:19.992Z,2.33
2022-10-10T03:33:22.533Z,2.55
2022-10-10T03:37:24.533Z,2.30
2022-10-10T03:41:26.545Z,2.17
2022-10-10T03:45:28.552Z,2.40
2022-10-10T03:49:30.673Z,2.30
2022-10-10T03:53:32.778Z,2.38
2022-10-10T03:57:34.977Z,2.20
2022-10-10T04:01:37.338Z,2.10
2022-10-10T04:05:39.733Z,2.20
2022-10-10T04:09:41.704Z,2.22
2022-10-10T04:13:43.684Z,2.80
2022-10-10T04:17:45.656Z,2.58
2022-10-10T04:21:47.642Z,2.47
2022-10-10T04:25:53.359Z,2.70
2022-10-10T04:29:55.348Z,2.50
2022-10-10T04:33:57.337Z,2.50
2022-10-10T04:37:59.336Z,2.60
2022-10-10T04:42:01.399Z,2.72
2022-10-10T04:46:03.551Z,2.80
2022-10-10T04:50:06.015Z,2.90
2022-10-10T04:54:08.057Z,3.00
2022-10-10T04:58:10.026Z,3.00
2022-10-10T05:02:12.103Z,2.50
2022-10-10T05:06:14.096Z,2.85
2022-10-10T05:10:16.362Z,3.00
2022-10-10T05:14:18.375Z,2.83
2022-10-10T05:18:21.438Z,2.90
2022-10-10T05:22:23.422Z,2.72
2022-10-10T05:26:25.483Z,2.90
2022-10-10T05:30:27.483Z,3.05
2022-10-10T05:34:29.569Z,3.38
2022-10-10T05:38:31.627Z,3.40
2022-10-10T05:42:33.624Z,3.53
2022-10-10T05:46:35.663Z,3.20
2022-10-10T05:50:40.631Z,3.83
2022-10-10T05:54:42.640Z,3.75
2022-10-10T05:58:45.244Z,3.50
2022-10-10T06:02:47.332Z,5.15
2022-10-10T06:06:50.342Z,8.23
2022-10-10T06:10:52.899Z,10.07
2022-10-10T06:14:54.930Z,10.38
2022-10-10T06:18:57.136Z,5.13
2022-10-10T06:22:59.143Z,6.78
2022-10-10T06:27:01.141Z,10.07
2022-10-10T06:31:06.513Z,8.38
2022-10-10T06:35:08.621Z,5.70
2022-10-10T06:39:10.669Z,3.35
2022-10-10T06:43:14.444Z,3.10
2022-10-10T06:47:16.918Z,4.28
2022-10-10T06:51:19.020Z,4.30
2022-10-10T06:55:21.000Z,4.10
2022-10-10T06:59:22.998Z,4.95
2022-10-10T07:03:25.880Z,11.00
2022-10-10T07:07:27.902Z,8.13
2022-10-10T07:11:30.096Z,8.27
2022-10-10T07:15:32.110Z,6.93
2022-10-10T07:19:37.223Z,6.43
2022-10-10T07:23:39.450Z,7.00
2022-10-10T07:27:41.546Z,8.18
2022-10-10T07:31:43.555Z,7.72
2022-10-10T07:35:54.040Z,7.57
2022-10-10T07:39:56.081Z,5.97
2022-10-10T07:43:58.125Z,5.85
2022-10-10T07:48:00.200Z,5.95
2022-10-10T07:52:02.523Z,5.57
2022-10-10T07:56:06.269Z,5.88
2022-10-10T08:00:10.012Z,5.65
2022-10-10T08:04:14.888Z,5.05
2022-10-10T08:08:16.891Z,4.75
2022-10-10T08:12:18.920Z,4.18
2022-10-10T08:16:21.062Z,4.32
2022-10-10T08:20:23.098Z,4.40
2022-10-10T08:24:25.206Z,4.00
2022-10-10T08:28:28.282Z,3.60
2022-10-10T08:32:30.427Z,3.42
2022-10-10T08:36:32.430Z,3.50
2022-10-10T08:40:42.360Z,3.53
2022-10-10T08:44:53.005Z,3.42
2022-10-10T08:48:58.440Z,3.47
2022-10-10T08:53:11.654Z,3.10
2022-10-10T08:57:26.030Z,3.17
2022-10-10T09:01:34.732Z,3.10
2022-10-10T09:05:36.681Z,3.28
2022-10-10T09:10:12.451Z,3.20
2022-10-10T09:14:44.709Z,3.20
2022-10-10T09:19:12.500Z,3.50
2022-10-10T09:23:19.734Z,3.58
2022-10-10T09:27:26.994Z,3.53
2022-10-10T09:35:39.028Z,3.80
2022-10-10T09:39:48.698Z,4.07
2022-10-10T09:43:59.124Z,4.15
2022-10-10T09:48:01.107Z,4.00
2022-10-10T09:52:20.877Z,4.30
2022-10-10T09:56:27.319Z,3.85
2022-10-10T10:00:35.199Z,3.90
2022-10-10T10:04:37.232Z,3.90
2022-10-10T10:08:39.648Z,3.83
2022-10-10T10:12:44.122Z,3.90
2022-10-10T10:16:46.123Z,4.00
2022-10-10T10:20:51.363Z,3.55
2022-10-10T10:24:53.765Z,3.92
2022-10-10T10:29:00.317Z,3.95
2022-10-10T10:33:15.766Z,3.63
2022-10-10T10:37:23.896Z,4.22
2022-10-10T10:41:38.265Z,3.53
2022-10-10T10:46:07.136Z,3.90
2022-10-10T10:50:27.849Z,4.13
2022-10-10T10:54:40.128Z,3.97
2022-10-10T10:59:36.260Z,3.35
2022-10-10T11:05:16.047Z,3.65
2022-10-10T11:08:03.165Z,3.70
2022-10-10T11:12:27.039Z,3.55
2022-10-10T11:16:53.669Z,3.50
2022-10-10T11:21:05.376Z,3.60
2022-10-10T11:25:16.987Z,4.25
2022-10-10T11:29:27.771Z,4.20
2022-10-10T11:33:42.812Z,3.67
2022-10-10T11:37:53.174Z,3.72
2022-10-10T11:42:00.297Z,3.25
2022-10-10T11:46:33.920Z,3.28
2022-10-10T11:50:40.298Z,3.10
2022-10-10T11:55:14.011Z,2.87
2022-10-10T11:59:34.031Z,3.10
2022-10-10T12:03:36.020Z,3.25
2022-10-10T12:07:49.103Z,3.00
2022-10-10T12:12:02.633Z,3.10
2022-10-10T12:16:10.522Z,2.45
2022-10-10T12:20:15.587Z,2.90
2022-10-10T12:24:17.624Z,2.50
2022-10-10T12:28:56.318Z,2.22
2022-10-10T12:32:58.864Z,2.10
2022-10-10T12:37:21.653Z,1.83
2022-10-10T12:41:52.695Z,2.20
2022-10-10T12:46:09.603Z,2.10
2022-10-10T12:50:41.575Z,1.92
2022-10-10T12:54:45.634Z,2.13
2022-10-10T12:58:49.517Z,2.42
2022-10-10T13:02:57.716Z,1.95
2022-10-10T13:07:02.480Z,2.03
2022-10-10T13:11:13.343Z,1.90
2022-10-10T13:15:20.256Z,2.78
2022-10-10T13:19:24.354Z,2.15
2022-10-10T13:23:26.662Z,2.25
2022-10-10T13:27:32.281Z,1.85
2022-10-10T13:31:34.355Z,1.88
2022-10-10T13:35:38.157Z,1.70
2022-10-10T13:39:40.615Z,2.10
2022-10-10T13:43:42.697Z,1.90
2022-10-10T13:47:56.771Z,2.08
2022-10-10T13:52:20.221Z,2.00
2022-10-10T13:56:30.959Z,2.00
2022-10-10T14:00:33.058Z,2.10
2022-10-10T14:04:44.153Z,2.10
2022-10-10T14:08:48.183Z,1.98
2022-10-10T14:12:56.608Z,1.92
2022-10-10T14:17:00.991Z,1.90
2022-10-10T14:21:03.339Z,1.70
2022-10-10T14:25:05.941Z,2.35
2022-10-10T14:29:13.463Z,1.40
2022-10-10T14:33:17.632Z,1.67
2022-10-10T14:37:25.184Z,1.75
2022-10-10T14:41:27.298Z,1.95
2022-10-10T14:45:29.374Z,1.73
2022-10-10T14:49:31.357Z,1.83
2022-10-10T14:53:33.349Z,2.00
2022-10-10T14:57:35.330Z,1.88
2022-10-10T15:01:37.319Z,2.17
2022-10-10T15:05:40.316Z,1.92
2022-10-10T15:10:10.870Z,2.13
2022-10-10T15:14:06.843Z,1.95
2022-10-10T15:18:25.704Z,2.40
2022-10-10T15:22:31.687Z,2.38
2022-10-10T15:26:33.745Z,2.20
2022-10-10T15:30:39.484Z,2.33
2022-10-10T15:34:44.242Z,2.25
2022-10-10T15:38:46.332Z,1.83
2022-10-10T15:42:49.968Z,2.20
2022-10-10T15:46:53.127Z,2.08
2022-10-10T15:50:55.168Z,2.25
2022-10-10T15:54:57.183Z,2.22
2022-10-10T15:59:01.381Z,2.55
2022-10-10T16:03:03.483Z,3.03
2022-10-10T16:07:24.606Z,2.83
2022-10-10T16:11:28.343Z,3.05
2022-10-10T16:15:30.579Z,3.65
2022-10-10T16:19:32.609Z,3.47
2022-10-10T16:23:34.683Z,3.50
2022-10-10T16:27:38.465Z,3.25
2022-10-10T16:31:40.995Z,4.38
2022-10-10T16:35:43.097Z,4.43
2022-10-10T16:39:45.100Z,4.03
2022-10-10T16:43:48.044Z,3.53
2022-10-10T16:47:50.022Z,3.45
2022-10-10T16:51:52.031Z,3.20
2022-10-10T16:55:59.225Z,3.90
2022-10-10T17:04:03.574Z,4.38
2022-10-10T17:08:05.610Z,4.70
2022-10-10T17:12:07.592Z,3.75
2022-10-10T17:20:43.323Z,6.90
2022-10-10T17:24:45.335Z,7.97
2022-10-10T17:28:47.416Z,6.68
2022-10-10T17:32:50.125Z,6.85
2022-10-10T17:36:52.853Z,6.35
2022-10-10T17:41:00.019Z,8.60
2022-10-10T17:49:06.029Z,6.60
2022-10-10T17:53:08.031Z,7.20
2022-10-10T17:57:10.284Z,6.25
2022-10-10T18:01:14.547Z,5.43
2022-10-10T18:05:16.807Z,4.10
2022-10-10T18:09:18.851Z,3.88
2022-10-10T18:13:20.898Z,5.47
2022-10-10T18:17:23.104Z,4.40
2022-10-10T18:21:25.172Z,4.63
2022-10-10T18:25:27.426Z,4.03
2022-10-10T18:29:29.498Z,4.38
2022-10-10T18:33:31.501Z,3.85
2022-10-10T18:37:35.422Z,4.25
2022-10-10T18:41:37.525Z,4.72
2022-10-10T18:45:39.619Z,3.10
2022-10-10T18:49:41.761Z,3.10
2022-10-10T18:53:45.256Z,2.70
2022-10-10T18:57:47.295Z,3.45
2022-10-10T19:01:52.515Z,3.33
2022-10-10T19:05:55.440Z,3.25
2022-10-10T19:09:57.429Z,4.13
2022-10-10T19:14:01.156Z,3.58
2022-10-10T19:18:03.325Z,3.40
2022-10-10T19:22:05.367Z,3.10
2022-10-10T19:26:10.498Z,3.83
2022-10-10T19:30:13.352Z,3.33
2022-10-10T19:34:15.419Z,3.08
2022-10-10T19:38:17.399Z,3.25
2022-10-10T19:42:19.418Z,3.20
2022-10-10T19:46:22.636Z,2.90
2022-10-10T19:50:24.656Z,3.72
2022-10-10T19:54:26.684Z,2.90
2022-10-10T19:58:29.388Z,3.22
2022-10-10T20:02:32.174Z,2.97
2022-10-10T20:06:34.209Z,3.42
2022-10-10T20:10:39.672Z,3.38
2022-10-10T20:14:41.688Z,3.60
2022-10-10T20:18:43.835Z,3.30
2022-10-10T20:22:45.906Z,3.42
2022-10-10T20:26:47.961Z,3.88
2022-10-10T20:30:51.396Z,3.13
2022-10-10T20:34:53.382Z,3.60
2022-10-10T20:39:04.881Z,3.95
2022-10-10T20:43:07.178Z,3.72
2022-10-10T20:47:09.157Z,3.97
2022-10-10T20:51:12.968Z,3.70
2022-10-10T20:55:14.962Z,3.55
2022-10-10T20:59:18.294Z,3.53
2022-10-10T21:03:20.301Z,3.63
2022-10-10T21:07:22.433Z,3.67
2022-10-10T21:11:24.520Z,3.35
2022-10-10T21:15:26.584Z,3.88
2022-10-10T21:19:28.578Z,4.47
2022-10-10T21:23:35.149Z,4.10
2022-10-10T21:27:37.181Z,4.47
2022-10-10T21:31:40.671Z,4.53
2022-10-10T21:35:42.747Z,3.75
2022-10-10T21:39:44.937Z,3.70
2022-10-10T21:43:57.507Z,22.30
2022-10-10T21:47:59.538Z,8.65
2022-10-10T21:52:01.590Z,3.95
2022-10-10T21:56:08.957Z,4.30
2022-10-10T22:00:12.074Z,4.35
2022-10-10T22:04:14.118Z,4.50
2022-10-10T22:08:16.146Z,3.70
2022-10-10T22:12:18.205Z,3.90
2022-10-10T22:16:20.691Z,3.88
2022-10-10T22:20:22.924Z,4.03
2022-10-10T22:24:25.103Z,4.63
2022-10-10T22:28:27.263Z,4.38
2022-10-10T22:32:29.731Z,4.63
2022-10-10T22:36:31.798Z,4.50
2022-10-10T22:40:34.284Z,4.22
2022-10-10T22:44:36.355Z,4.60
2022-10-10T22:48:38.446Z,4.90
2022-10-10T22:52:41.220Z,5.57
2022-10-10T22:56:43.381Z,5.13
2022-10-10T23:00:45.466Z,4.57
2022-10-10T23:04:47.570Z,4.43
2022-10-10T23:08:49.616Z,4.63
2022-10-10T23:12:51.710Z,4.10
2022-10-10T23:16:53.735Z,4.53
2022-10-10T23:20:56.108Z,4.63
2022-10-10T23:24:58.194Z,5.13
2022-10-10T23:29:00.266Z,5.00
2022-10-10T23:33:02.321Z,5.80
2022-10-10T23:37:04.314Z,5.65
2022-10-10T23:41:07.272Z,5.43
2022-10-10T23:45:09.793Z,5.70
2022-10-10T23:49:11.795Z,5.10
2022-10-10T23:53:14.048Z,5.63
2022-10-10T23:57:16.043Z,5.68
